createdAt,value
2024-02-03T00:01:28.577Z,5.40
2024-02-03T00:03:56.627Z,4.50
2024-02-03T00:06:23.943Z,5.20
2024-02-03T00:08:51.941Z,4.30
2024-02-03T00:11:19.220Z,4.30
2024-02-03T00:13:46.375Z,5.10
2024-02-03T00:16:13.621Z,4.70
2024-02-03T00:18:40.971Z,6.00
2024-02-03T00:21:08.772Z,5.00
2024-02-03T00:23:35.726Z,4.80
2024-02-03T00:26:02.729Z,7.00
2024-02-03T00:28:29.919Z,6.00
2024-02-03T00:30:56.803Z,6.90
2024-02-03T00:33:23.852Z,7.80
2024-02-03T00:35:51.012Z,7.30
2024-02-03T00:38:18.247Z,8.10
2024-02-03T00:40:45.352Z,4.80
2024-02-03T00:43:15.708Z,5.90
2024-02-03T00:45:46.279Z,7.40
2024-02-03T00:48:13.929Z,3.90
2024-02-03T00:50:41.381Z,4.90
2024-02-03T00:53:08.790Z,4.30
2024-02-03T00:55:36.213Z,3.80
2024-02-03T00:58:03.516Z,4.00
2024-02-03T01:00:30.909Z,8.00
2024-02-03T01:02:58.250Z,3.50
2024-02-03T01:05:25.496Z,4.10
2024-02-03T01:07:53.475Z,4.10
2024-02-03T01:10:21.736Z,4.20
2024-02-03T01:12:48.894Z,6.20
2024-02-03T01:15:16.106Z,16.90
2024-02-03T01:17:43.115Z,5.50
2024-02-03T01:20:10.952Z,8.10
2024-02-03T01:22:37.964Z,10.70
2024-02-03T01:25:05.743Z,11.60
2024-02-03T01:27:32.858Z,9.00
2024-02-03T01:29:59.980Z,12.10
2024-02-03T01:32:27.108Z,10.30
2024-02-03T01:34:54.267Z,5.10
2024-02-03T01:37:21.394Z,6.00
2024-02-03T01:39:48.413Z,5.10
2024-02-03T01:42:15.643Z,4.50
2024-02-03T01:44:43.225Z,6.00
2024-02-03T01:47:11.285Z,5.30
2024-02-03T01:49:38.681Z,4.10
2024-02-03T01:52:07.223Z,4.80
2024-02-03T01:54:35.425Z,4.40
2024-02-03T01:57:03.123Z,4.30
2024-02-03T01:59:32.292Z,4.20
2024-02-03T02:02:02.363Z,4.10
2024-02-03T02:04:30.270Z,4.10
2024-02-03T02:06:58.912Z,3.80
2024-02-03T02:09:27.874Z,4.40
2024-02-03T02:11:56.347Z,3.70
2024-02-03T02:14:25.260Z,3.60
2024-02-03T02:16:53.753Z,5.10
2024-02-03T02:19:20.798Z,4.90
2024-02-03T02:21:47.965Z,3.50
2024-02-03T02:24:16.621Z,3.70
2024-02-03T02:26:44.120Z,3.70
2024-02-03T02:29:11.050Z,3.60
2024-02-03T02:31:38.020Z,3.60
2024-02-03T02:34:05.063Z,4.40
2024-02-03T02:36:32.152Z,3.30
2024-02-03T02:38:59.246Z,3.60
2024-02-03T02:41:26.216Z,3.00
2024-02-03T02:43:53.366Z,3.40
2024-02-03T02:46:26.683Z,4.10
2024-02-03T02:48:54.329Z,4.20
2024-02-03T02:51:21.678Z,4.00
2024-02-03T02:53:48.906Z,3.90
2024-02-03T02:56:16.118Z,3.30
2024-02-03T02:58:43.313Z,3.50
2024-02-03T03:01:10.410Z,3.90
2024-02-03T03:03:37.726Z,3.30
2024-02-03T03:06:05.079Z,3.40
2024-02-03T03:08:32.130Z,3.20
2024-02-03T03:10:59.230Z,4.10
2024-02-03T03:13:26.710Z,3.30
2024-02-03T03:15:54.382Z,3.20
2024-02-03T03:18:21.723Z,4.50
2024-02-03T03:20:48.875Z,4.60
2024-02-03T03:23:15.979Z,3.80
2024-02-03T03:25:44.017Z,4.50
2024-02-03T03:28:10.862Z,3.50
2024-02-03T03:30:38.078Z,3.40
2024-02-03T03:33:05.516Z,4.10
2024-02-03T03:35:32.588Z,3.40
2024-02-03T03:37:59.509Z,3.70
2024-02-03T03:40:26.692Z,4.20
2024-02-03T03:42:53.950Z,3.70
2024-02-03T03:45:21.149Z,3.90
2024-02-03T03:47:48.324Z,3.70
2024-02-03T03:50:15.689Z,3.60
2024-02-03T03:52:42.903Z,3.80
2024-02-03T03:55:10.261Z,3.80
2024-02-03T03:57:37.483Z,4.10
2024-02-03T04:00:10.920Z,3.70
2024-02-03T04:02:38.622Z,4.10
2024-02-03T04:05:09.114Z,4.20
2024-02-03T04:07:36.259Z,4.80
2024-02-03T04:10:03.563Z,3.60
2024-02-03T04:12:30.881Z,4.10
2024-02-03T04:14:58.199Z,3.70
2024-02-03T04:17:25.371Z,3.90
2024-02-03T04:19:52.593Z,4.50
2024-02-03T04:22:20.471Z,4.80
2024-02-03T04:24:47.472Z,3.60
2024-02-03T04:27:14.462Z,4.00
2024-02-03T04:29:42.166Z,4.30
2024-02-03T04:32:09.456Z,4.30
2024-02-03T04:34:36.859Z,4.70
2024-02-03T04:37:04.451Z,4.60
2024-02-03T04:39:31.911Z,4.20
2024-02-03T04:41:59.238Z,4.70
2024-02-03T04:44:26.564Z,4.20
2024-02-03T04:46:53.894Z,4.00
2024-02-03T04:49:21.150Z,4.40
2024-02-03T04:51:48.611Z,4.00
2024-02-03T04:54:15.976Z,4.20
2024-02-03T04:56:43.266Z,4.40
2024-02-03T04:59:10.347Z,4.10
2024-02-03T05:01:37.846Z,4.90
2024-02-03T05:04:04.889Z,4.30
2024-02-03T05:06:32.281Z,4.40
2024-02-03T05:09:01.214Z,4.10
2024-02-03T05:11:28.540Z,4.10
2024-02-03T05:13:55.738Z,4.90
2024-02-03T05:16:22.798Z,4.40
2024-02-03T05:18:50.102Z,4.90
2024-02-03T05:21:17.296Z,4.50
2024-02-03T05:23:44.371Z,5.50
2024-02-03T05:26:11.380Z,4.40
2024-02-03T05:28:39.319Z,5.30
2024-02-03T05:31:06.611Z,6.00
2024-02-03T05:33:35.119Z,5.40
2024-02-03T05:36:02.624Z,4.40
2024-02-03T05:38:29.808Z,4.30
2024-02-03T05:40:57.101Z,5.20
2024-02-03T05:43:24.260Z,5.60
2024-02-03T05:45:51.634Z,4.40
2024-02-03T05:48:19.069Z,4.30
2024-02-03T05:50:46.117Z,3.90
2024-02-03T05:53:13.357Z,4.40
2024-02-03T05:55:40.543Z,4.30
2024-02-03T05:58:07.576Z,5.60
2024-02-03T06:00:34.844Z,3.80
2024-02-03T06:03:02.410Z,5.80
2024-02-03T06:05:29.466Z,5.20
2024-02-03T06:07:56.739Z,5.50
2024-02-03T06:10:24.303Z,6.20
2024-02-03T06:12:51.458Z,5.70
2024-02-03T06:15:18.579Z,4.80
2024-02-03T06:17:46.073Z,5.70
2024-02-03T06:20:13.376Z,4.90
2024-02-03T06:22:40.421Z,5.60
2024-02-03T06:25:07.601Z,4.40
2024-02-03T06:27:34.696Z,5.00
2024-02-03T06:30:01.945Z,4.10
2024-02-03T06:32:29.168Z,4.80
2024-02-03T06:34:56.610Z,6.30
2024-02-03T06:37:24.084Z,5.20
2024-02-03T06:39:51.192Z,5.80
2024-02-03T06:42:18.611Z,4.10
2024-02-03T06:44:47.004Z,4.40
2024-02-03T06:47:14.325Z,6.20
2024-02-03T06:49:41.517Z,21.90
2024-02-03T06:52:08.750Z,48.20
2024-02-03T06:54:35.629Z,46.90
2024-02-03T06:57:02.874Z,43.90
2024-02-03T06:59:30.271Z,25.10
2024-02-03T07:01:57.485Z,11.50
2024-02-03T07:04:24.656Z,9.50
2024-02-03T07:06:51.868Z,10.10
2024-02-03T07:09:19.019Z,13.50
2024-02-03T07:11:56.676Z,18.90
2024-02-03T07:14:31.032Z,10.90
2024-02-03T07:16:58.860Z,5.70
2024-02-03T07:19:26.256Z,26.50
2024-02-03T07:21:53.874Z,28.00
2024-02-03T07:24:21.363Z,22.50
2024-02-03T07:26:48.537Z,23.20
2024-02-03T07:29:16.207Z,64.80
2024-02-03T07:31:43.664Z,205.70
2024-02-03T07:34:11.335Z,156.90
2024-02-03T07:36:39.043Z,278.70
2024-02-03T07:39:06.538Z,150.10
2024-02-03T07:41:34.874Z,94.50
2024-02-03T07:44:02.017Z,87.60
2024-02-03T07:46:29.250Z,56.00
2024-02-03T07:48:56.962Z,31.90
2024-02-03T07:51:24.123Z,18.30
2024-02-03T07:53:51.742Z,22.50
2024-02-03T07:56:19.275Z,18.10
2024-02-03T07:58:46.881Z,14.30
2024-02-03T08:01:14.703Z,18.00
2024-02-03T08:03:42.007Z,21.20
2024-02-03T08:06:10.041Z,18.80
2024-02-03T08:08:37.619Z,15.80
2024-02-03T08:11:04.942Z,12.20
2024-02-03T08:13:32.173Z,8.90
2024-02-03T08:16:00.281Z,7.70
2024-02-03T08:18:31.896Z,8.20
2024-02-03T08:20:59.101Z,15.50
2024-02-03T08:23:26.413Z,39.20
2024-02-03T08:25:53.440Z,61.90
2024-02-03T08:28:21.682Z,63.30
2024-02-03T08:30:49.116Z,37.80
2024-02-03T08:33:17.428Z,31.90
2024-02-03T08:35:45.171Z,18.10
2024-02-03T08:38:13.261Z,16.30
2024-02-03T08:40:40.984Z,15.90
2024-02-03T08:43:08.339Z,14.00
2024-02-03T08:45:35.779Z,13.10
2024-02-03T08:48:03.767Z,6.80
2024-02-03T08:50:31.016Z,6.60
2024-02-03T08:52:58.972Z,7.40
2024-02-03T08:55:26.297Z,5.80
2024-02-03T08:57:53.803Z,5.60
2024-02-03T09:00:22.939Z,6.10
2024-02-03T09:02:51.157Z,5.70
2024-02-03T09:05:20.396Z,6.00
2024-02-03T09:07:48.627Z,13.30
2024-02-03T09:10:15.641Z,13.50
2024-02-03T09:12:43.169Z,12.80
2024-02-03T09:15:10.490Z,9.80
2024-02-03T09:17:37.954Z,7.60
2024-02-03T09:20:05.614Z,26.90
2024-02-03T09:22:33.790Z,27.50
2024-02-03T09:25:01.495Z,10.10
2024-02-03T09:27:29.911Z,6.60
2024-02-03T09:29:57.058Z,6.20
2024-02-03T09:32:27.650Z,6.00
2024-02-03T09:34:55.615Z,5.70
2024-02-03T09:39:54.082Z,5.70
2024-02-03T09:42:21.386Z,5.70
2024-02-03T09:44:49.884Z,5.90
2024-02-03T09:47:19.160Z,6.10
2024-02-03T09:49:48.800Z,6.60
2024-02-03T09:52:18.333Z,6.10
2024-02-03T09:54:49.432Z,6.10
2024-02-03T09:57:16.809Z,5.90
2024-02-03T09:59:50.511Z,5.60
2024-02-03T10:02:18.805Z,5.30
2024-02-03T10:04:46.589Z,5.40
2024-02-03T10:07:18.994Z,5.20
2024-02-03T10:12:21.877Z,5.50
2024-02-03T10:15:06.454Z,5.80
2024-02-03T10:17:34.480Z,6.30
2024-02-03T10:20:01.687Z,5.70
2024-02-03T10:22:28.996Z,6.40
2024-02-03T10:25:07.072Z,6.00
2024-02-03T10:27:34.133Z,6.00
2024-02-03T10:30:02.079Z,5.30
2024-02-03T10:32:29.410Z,5.70
2024-02-03T10:34:57.703Z,5.20
2024-02-03T10:37:24.925Z,5.40
2024-02-03T10:39:52.823Z,5.20
2024-02-03T10:42:22.112Z,5.30
2024-02-03T10:44:50.441Z,5.20
2024-02-03T10:47:22.546Z,4.60
2024-02-03T10:49:51.172Z,5.40
2024-02-03T10:52:20.980Z,13.10
2024-02-03T10:54:54.620Z,8.50
2024-02-03T10:57:23.042Z,6.70
2024-02-03T10:59:50.180Z,5.50
2024-02-03T11:02:21.602Z,4.80
2024-02-03T11:04:49.581Z,5.40
2024-02-03T11:07:25.319Z,4.60
2024-02-03T11:09:57.482Z,4.70
2024-02-03T11:12:33.162Z,4.20
2024-02-03T11:15:00.301Z,3.90
2024-02-03T11:17:32.421Z,4.20
2024-02-03T11:20:04.229Z,3.80
2024-02-03T11:22:31.499Z,3.80
2024-02-03T11:25:02.286Z,4.10
2024-02-03T11:27:29.457Z,4.00
2024-02-03T11:30:06.821Z,4.40
2024-02-03T11:32:33.744Z,4.20
2024-02-03T11:35:04.832Z,4.30
2024-02-03T11:37:31.962Z,4.90
2024-02-03T11:40:07.805Z,4.80
2024-02-03T11:42:36.085Z,4.70
2024-02-03T11:45:23.869Z,6.30
2024-02-03T11:47:51.589Z,4.60
2024-02-03T11:50:19.638Z,4.50
2024-02-03T11:52:47.231Z,4.70
2024-02-03T11:55:14.905Z,4.70
2024-02-03T11:57:43.098Z,4.20
2024-02-03T12:00:11.338Z,4.10
2024-02-03T12:02:38.705Z,3.70
2024-02-03T12:05:07.303Z,3.90
2024-02-03T12:07:35.437Z,3.20
2024-02-03T12:10:04.288Z,3.20
2024-02-03T12:12:34.290Z,3.20
2024-02-03T12:15:02.829Z,3.30
2024-02-03T12:17:30.151Z,3.40
2024-02-03T12:19:58.848Z,2.70
2024-02-03T12:22:26.135Z,3.30
2024-02-03T12:24:53.427Z,2.60
2024-02-03T12:27:24.007Z,2.80
2024-02-03T12:29:51.754Z,2.70
2024-02-03T12:32:18.936Z,2.70
2024-02-03T12:34:46.230Z,2.90
2024-02-03T12:37:13.750Z,2.70
2024-02-03T12:39:41.202Z,2.60
2024-02-03T12:42:09.764Z,3.00
2024-02-03T12:44:36.889Z,2.70
2024-02-03T12:47:04.902Z,2.50
2024-02-03T12:49:32.482Z,2.40
2024-02-03T12:52:00.357Z,2.70
2024-02-03T12:54:27.997Z,3.10
2024-02-03T12:56:55.713Z,3.40
2024-02-03T12:59:23.737Z,3.70
2024-02-03T13:01:51.238Z,3.60
2024-02-03T13:04:18.494Z,3.30
2024-02-03T13:06:46.043Z,3.20
2024-02-03T13:09:13.425Z,3.50
2024-02-03T13:11:40.632Z,3.30
2024-02-03T13:14:08.135Z,3.90
2024-02-03T13:16:35.391Z,3.40
2024-02-03T13:19:02.697Z,3.40
2024-02-03T13:21:29.965Z,3.60
2024-02-03T13:23:57.223Z,3.30
2024-02-03T13:26:24.751Z,8.10
2024-02-03T13:28:51.878Z,3.50
2024-02-03T13:31:24.159Z,3.10
2024-02-03T13:33:51.432Z,3.60
2024-02-03T13:36:19.455Z,3.40
2024-02-03T13:38:46.774Z,3.10
2024-02-03T13:41:14.108Z,3.50
2024-02-03T13:43:41.091Z,3.60
2024-02-03T13:46:08.520Z,4.10
2024-02-03T13:48:36.132Z,3.60
2024-02-03T13:51:04.015Z,3.40
2024-02-03T13:53:31.671Z,3.70
2024-02-03T13:56:01.960Z,3.80
2024-02-03T13:58:29.821Z,3.60
2024-02-03T14:00:57.120Z,3.80
2024-02-03T14:03:24.329Z,3.90
2024-02-03T14:05:51.968Z,4.10
2024-02-03T14:08:20.867Z,4.00
2024-02-03T14:10:49.672Z,4.10
2024-02-03T14:13:16.782Z,3.90
2024-02-03T14:15:44.610Z,4.20
2024-02-03T14:18:12.022Z,5.30
2024-02-03T14:20:39.374Z,3.90
2024-02-03T14:23:06.613Z,4.20
2024-02-03T14:25:35.774Z,4.20
2024-02-03T14:28:04.904Z,4.50
2024-02-03T14:30:32.024Z,4.50
2024-02-03T14:35:28.772Z,3.80
2024-02-03T14:37:56.894Z,4.00
2024-02-03T14:40:24.343Z,4.50
2024-02-03T14:42:52.304Z,4.70
2024-02-03T14:45:19.474Z,5.00
2024-02-03T14:47:46.787Z,4.30
2024-02-03T14:50:13.993Z,4.50
2024-02-03T14:52:41.210Z,4.40
2024-02-03T14:55:09.190Z,4.10
2024-02-03T14:57:36.397Z,3.70
2024-02-03T15:00:05.067Z,4.40
2024-02-03T15:02:36.068Z,4.50
2024-02-03T15:05:06.056Z,4.50
2024-02-03T15:07:33.915Z,5.20
2024-02-03T15:10:02.328Z,4.40
2024-02-03T15:12:34.208Z,4.70
2024-02-03T15:15:01.689Z,4.20
2024-02-03T15:17:29.125Z,4.00
2024-02-03T15:19:56.243Z,3.80
2024-02-03T15:22:23.562Z,4.30
2024-02-03T15:24:50.646Z,3.90
2024-02-03T15:27:21.080Z,4.30
2024-02-03T15:29:48.216Z,4.30
2024-02-03T15:32:17.928Z,4.60
2024-02-03T15:34:45.768Z,4.20
2024-02-03T15:37:13.412Z,4.60
2024-02-03T15:39:40.758Z,5.10
2024-02-03T15:42:07.812Z,4.60
2024-02-03T15:44:41.498Z,5.30
2024-02-03T15:47:13.293Z,5.00
2024-02-03T15:49:40.344Z,4.60
2024-02-03T15:52:07.448Z,5.20
2024-02-03T15:54:34.541Z,4.30
2024-02-03T15:57:01.912Z,5.10
2024-02-03T15:59:29.291Z,5.70
2024-02-03T16:01:56.409Z,4.60
2024-02-03T16:04:24.107Z,4.60
2024-02-03T16:06:51.914Z,4.70
2024-02-03T16:09:20.347Z,8.50
2024-02-03T16:11:48.296Z,6.80
2024-02-03T16:14:15.628Z,19.30
2024-02-03T16:16:43.244Z,12.40
2024-02-03T16:19:11.205Z,9.30
2024-02-03T16:21:38.533Z,7.60
2024-02-03T16:24:06.109Z,5.50
2024-02-03T16:29:00.393Z,4.30
2024-02-03T16:31:27.904Z,3.80
2024-02-03T16:33:55.514Z,4.30
2024-02-03T16:36:22.825Z,4.60
2024-02-03T16:38:49.977Z,4.20
2024-02-03T16:41:19.665Z,12.70
2024-02-03T16:43:47.009Z,7.80
2024-02-03T16:46:14.480Z,5.30
2024-02-03T16:48:41.814Z,7.50
2024-02-03T16:51:09.952Z,26.80
2024-02-03T16:53:37.217Z,19.00
2024-02-03T16:56:05.281Z,24.10
2024-02-03T16:58:32.722Z,12.70
2024-02-03T17:01:00.159Z,7.10
2024-02-03T17:03:27.502Z,11.40
2024-02-03T17:05:55.711Z,4.00
2024-02-03T17:08:23.089Z,4.10
2024-02-03T17:10:50.371Z,3.90
2024-02-03T17:13:17.994Z,10.10
2024-02-03T17:15:45.556Z,6.20
2024-02-03T17:18:13.039Z,7.30
2024-02-03T17:20:40.699Z,7.60
2024-02-03T17:23:08.707Z,5.50
2024-02-03T17:25:36.315Z,6.90
2024-02-03T17:28:04.909Z,16.30
2024-02-03T17:30:32.375Z,13.70
2024-02-03T17:32:59.519Z,11.80
2024-02-03T17:35:27.845Z,20.50
2024-02-03T17:37:55.057Z,25.30
2024-02-03T17:40:22.412Z,26.10
2024-02-03T17:42:51.005Z,12.60
2024-02-03T17:45:19.175Z,8.50
2024-02-03T17:47:47.822Z,8.30
2024-02-03T17:50:19.098Z,6.70
2024-02-03T17:52:47.533Z,7.80
2024-02-03T17:55:16.551Z,7.00
2024-02-03T17:57:46.537Z,10.70
2024-02-03T18:00:15.099Z,11.60
2024-02-03T18:02:44.292Z,12.90
2024-02-03T18:05:12.626Z,17.60
2024-02-03T18:07:42.226Z,21.10
2024-02-03T18:10:12.188Z,12.50
2024-02-03T18:12:42.448Z,6.70
2024-02-03T18:15:11.299Z,8.80
2024-02-03T18:17:39.284Z,7.30
2024-02-03T18:20:09.911Z,8.30
2024-02-03T18:22:37.404Z,8.50
2024-02-03T18:25:06.045Z,8.50
2024-02-03T18:27:34.335Z,9.90
2024-02-03T18:30:02.058Z,12.80
2024-02-03T18:32:30.726Z,10.90
2024-02-03T18:34:58.413Z,9.10
2024-02-03T18:37:26.482Z,9.30
2024-02-03T18:39:54.509Z,8.60
2024-02-03T18:42:23.965Z,7.50
2024-02-03T18:44:51.672Z,9.20
2024-02-03T18:47:19.561Z,10.30
2024-02-03T18:49:47.660Z,13.40
2024-02-03T18:52:15.598Z,10.10
2024-02-03T18:54:45.124Z,10.20
2024-02-03T18:57:14.388Z,8.20
2024-02-03T18:59:42.536Z,8.90
2024-02-03T19:02:10.591Z,8.70
2024-02-03T19:04:38.282Z,11.80
2024-02-03T19:07:07.263Z,10.50
2024-02-03T19:09:38.597Z,12.30
2024-02-03T19:12:10.236Z,11.60
2024-02-03T19:14:38.236Z,12.30
2024-02-03T19:17:06.607Z,7.60
2024-02-03T19:19:37.278Z,10.30
2024-02-03T19:22:06.456Z,8.10
2024-02-03T19:24:35.758Z,8.70
2024-02-03T19:27:04.204Z,24.30
2024-02-03T19:29:32.217Z,13.80
2024-02-03T19:32:00.047Z,22.40
2024-02-03T19:34:33.101Z,12.90
2024-02-03T19:37:01.863Z,14.40
2024-02-03T19:39:30.476Z,12.90
2024-02-03T19:41:58.284Z,12.30
2024-02-03T19:44:26.885Z,20.60
2024-02-03T19:46:57.171Z,18.50
2024-02-03T19:49:25.233Z,5.90
2024-02-03T19:51:53.283Z,7.60
2024-02-03T19:54:20.836Z,7.00
2024-02-03T19:56:48.323Z,6.70
2024-02-03T19:59:17.760Z,11.20
2024-02-03T20:01:45.670Z,12.20
2024-02-03T20:04:14.178Z,13.90
2024-02-03T20:06:41.754Z,19.70
2024-02-03T20:09:10.055Z,15.20
2024-02-03T20:11:38.241Z,14.30
2024-02-03T20:14:06.504Z,15.60
2024-02-03T20:16:34.484Z,23.70
2024-02-03T20:19:01.996Z,25.20
2024-02-03T20:21:29.354Z,10.10
2024-02-03T20:23:57.647Z,13.90
2024-02-03T20:26:25.951Z,10.70
2024-02-03T20:28:54.798Z,9.30
2024-02-03T20:31:22.639Z,7.70
2024-02-03T20:33:50.657Z,7.70
2024-02-03T20:36:17.908Z,8.20
2024-02-03T20:38:45.418Z,11.80
2024-02-03T20:41:20.422Z,13.90
2024-02-03T20:43:48.157Z,14.00
2024-02-03T20:46:16.206Z,10.80
2024-02-03T20:48:44.360Z,11.90
2024-02-03T20:51:12.494Z,12.50
2024-02-03T20:53:40.871Z,8.60
2024-02-03T20:56:09.376Z,10.20
2024-02-03T20:58:38.652Z,14.50
2024-02-03T21:01:06.332Z,13.70
2024-02-03T21:03:34.220Z,26.80
2024-02-03T21:06:02.001Z,19.10
2024-02-03T21:08:30.867Z,13.30
2024-02-03T21:10:59.856Z,16.70
2024-02-03T21:13:27.627Z,19.60
2024-02-03T21:15:55.656Z,18.60
2024-02-03T21:18:25.397Z,10.30
2024-02-03T21:20:53.651Z,10.10
2024-02-03T21:23:22.005Z,7.50
2024-02-03T21:25:50.515Z,7.90
2024-02-03T21:28:18.853Z,7.10
2024-02-03T21:30:47.615Z,8.40
2024-02-03T21:33:15.436Z,8.50
2024-02-03T21:35:43.025Z,8.00
2024-02-03T21:38:10.576Z,10.70
2024-02-03T21:40:41.679Z,14.90
2024-02-03T21:43:09.975Z,18.50
2024-02-03T21:45:37.785Z,18.30
2024-02-03T21:48:06.767Z,12.80
2024-02-03T21:50:34.514Z,17.00
2024-02-03T21:53:02.722Z,15.50
2024-02-03T21:55:30.645Z,13.70
2024-02-03T21:57:58.386Z,17.10
2024-02-03T22:00:26.965Z,14.30
2024-02-03T22:02:54.714Z,20.90
2024-02-03T22:05:22.670Z,30.70
2024-02-03T22:07:52.336Z,7.80
2024-02-03T22:10:20.588Z,9.50
2024-02-03T22:12:50.110Z,8.00
2024-02-03T22:15:18.698Z,9.40
2024-02-03T22:17:46.187Z,8.10
2024-02-03T22:20:14.398Z,9.90
2024-02-03T22:22:42.184Z,9.40
2024-02-03T22:25:10.120Z,10.50
2024-02-03T22:27:40.036Z,14.20
2024-02-03T22:30:11.221Z,14.10
2024-02-03T22:32:39.557Z,10.30
2024-02-03T22:35:07.637Z,8.00
2024-02-03T22:37:36.876Z,9.50
2024-02-03T22:40:05.543Z,8.90
2024-02-03T22:42:33.384Z,9.20
2024-02-03T22:45:01.098Z,9.90
2024-02-03T22:47:28.550Z,11.60
2024-02-03T22:49:57.373Z,11.30
2024-02-03T22:52:26.245Z,9.00
2024-02-03T22:54:54.428Z,10.40
2024-02-03T22:57:22.179Z,9.70
2024-02-03T22:59:50.342Z,9.10
2024-02-03T23:02:18.435Z,8.30
2024-02-03T23:04:46.016Z,7.70
2024-02-03T23:07:13.472Z,7.30
2024-02-03T23:09:41.092Z,6.70
2024-02-03T23:12:11.536Z,8.40
2024-02-03T23:14:39.240Z,8.40
2024-02-03T23:17:06.589Z,6.60
2024-02-03T23:19:33.931Z,6.80
2024-02-03T23:22:02.250Z,7.50
2024-02-03T23:24:30.052Z,6.10
2024-02-03T23:26:57.792Z,5.70
2024-02-03T23:29:25.165Z,5.60
2024-02-03T23:31:52.312Z,5.30
2024-02-03T23:34:20.740Z,6.50
2024-02-03T23:36:48.529Z,6.10
2024-02-03T23:39:17.069Z,6.50
2024-02-03T23:41:44.921Z,9.00
2024-02-03T23:44:12.724Z,7.40
2024-02-03T23:46:39.788Z,11.50
2024-02-03T23:49:06.780Z,13.30
2024-02-03T23:51:34.477Z,12.60
2024-02-03T23:54:02.951Z,12.40
2024-02-03T23:56:30.267Z,10.40
2024-02-03T23:58:57.448Z,9.90
